createdAt,value
2018-05-24T00:01:51.086Z,13.10
2018-05-24T00:04:26.121Z,14.90
2018-05-24T00:07:01.983Z,15.13
2018-05-24T00:09:37.779Z,14.93
2018-05-24T00:12:13.686Z,15.57
2018-05-24T00:14:48.509Z,13.30
2018-05-24T00:17:23.446Z,13.87
2018-05-24T00:19:59.194Z,13.63
2018-05-24T00:22:34.740Z,14.47
2018-05-24T00:25:09.777Z,13.63
2018-05-24T00:27:47.069Z,13.90
2018-05-24T00:30:21.896Z,13.13
2018-05-24T00:32:57.494Z,16.40
2018-05-24T00:35:34.012Z,14.20
2018-05-24T00:38:10.363Z,14.37
2018-05-24T00:40:46.139Z,14.43
2018-05-24T00:43:21.794Z,15.63
2018-05-24T00:45:57.447Z,14.30
2018-05-24T00:48:33.286Z,14.27
2018-05-24T00:51:08.939Z,15.30
2018-05-24T00:53:44.279Z,16.70
2018-05-24T00:56:19.316Z,16.70
2018-05-24T00:58:54.628Z,18.43
2018-05-24T01:01:31.315Z,17.93
2018-05-24T01:04:06.157Z,17.50
2018-05-24T01:06:41.196Z,14.80
2018-05-24T01:09:15.886Z,15.67
2018-05-24T01:11:50.855Z,17.63
2018-05-24T01:14:27.967Z,15.87
2018-05-24T01:17:04.188Z,16.13
2018-05-24T01:19:39.442Z,15.23
2018-05-24T01:22:15.210Z,14.23
2018-05-24T01:24:51.254Z,17.00
2018-05-24T01:27:31.820Z,14.50
2018-05-24T01:30:07.020Z,14.40
2018-05-24T01:32:43.631Z,14.07
2018-05-24T01:35:19.824Z,14.27
2018-05-24T01:37:56.167Z,16.43
2018-05-24T01:40:31.806Z,13.60
2018-05-24T01:43:06.840Z,15.73
2018-05-24T01:45:43.258Z,14.60
2018-05-24T01:48:18.859Z,14.10
2018-05-24T01:50:54.481Z,14.93
2018-05-24T01:53:30.157Z,14.83
2018-05-24T01:56:05.194Z,14.40
2018-05-24T01:58:40.021Z,14.17
2018-05-24T02:01:14.851Z,11.40
2018-05-24T02:03:49.886Z,14.20
2018-05-24T02:06:25.033Z,13.77
2018-05-24T02:09:00.167Z,11.13
2018-05-24T02:11:34.903Z,13.23
2018-05-24T02:14:09.964Z,12.70
2018-05-24T02:16:45.105Z,12.30
2018-05-24T02:19:20.762Z,14.87
2018-05-24T02:21:56.259Z,13.37
2018-05-24T02:24:31.703Z,14.90
2018-05-24T02:27:06.740Z,15.00
2018-05-24T02:29:41.979Z,15.70
2018-05-24T02:32:16.809Z,15.77
2018-05-24T02:34:51.854Z,19.10
2018-05-24T02:37:26.885Z,17.53
2018-05-24T02:40:02.737Z,17.43
2018-05-24T02:42:38.592Z,17.40
2018-05-24T02:45:14.238Z,16.50
2018-05-24T02:47:49.023Z,16.40
2018-05-24T02:50:24.668Z,16.97
2018-05-24T02:52:59.754Z,14.60
2018-05-24T02:55:34.792Z,14.90
2018-05-24T02:58:09.824Z,14.30
2018-05-24T03:00:46.503Z,14.37
2018-05-24T03:03:21.556Z,14.03
2018-05-24T03:05:56.570Z,14.10
2018-05-24T03:08:32.220Z,14.23
2018-05-24T03:11:07.870Z,14.10
2018-05-24T03:13:43.523Z,13.47
2018-05-24T03:16:18.759Z,13.13
2018-05-24T03:18:53.963Z,15.30
2018-05-24T03:21:29.949Z,15.57
2018-05-24T03:24:05.744Z,13.80
2018-05-24T03:26:41.288Z,15.00
2018-05-24T03:29:17.049Z,16.50
2018-05-24T03:31:52.662Z,14.63
2018-05-24T03:34:29.123Z,13.90
2018-05-24T03:37:04.175Z,13.30
2018-05-24T03:39:40.217Z,15.90
2018-05-24T03:42:15.866Z,16.43
2018-05-24T03:44:52.337Z,16.10
2018-05-24T03:47:27.576Z,15.63
2018-05-24T03:50:03.239Z,14.03
2018-05-24T03:52:38.466Z,14.10
2018-05-24T03:55:13.304Z,14.10
2018-05-24T03:57:49.128Z,16.20
2018-05-24T04:00:35.809Z,15.27
2018-05-24T04:03:23.595Z,14.60
2018-05-24T04:05:59.856Z,16.10
2018-05-24T04:08:36.119Z,14.47
2018-05-24T04:11:11.368Z,15.80
2018-05-24T04:13:46.601Z,14.53
2018-05-24T04:16:21.634Z,17.17
2018-05-24T04:18:57.285Z,13.87
2018-05-24T04:21:32.117Z,15.57
2018-05-24T04:24:07.049Z,16.00
2018-05-24T04:26:42.044Z,15.10
2018-05-24T04:29:16.918Z,16.03
2018-05-24T04:31:52.157Z,14.40
2018-05-24T04:34:27.292Z,15.57
2018-05-24T04:37:02.941Z,15.23
2018-05-24T04:39:39.617Z,16.43
2018-05-24T04:42:14.650Z,14.30
2018-05-24T04:44:49.477Z,15.17
2018-05-24T04:47:24.924Z,16.27
2018-05-24T04:50:00.581Z,15.90
2018-05-24T04:52:35.408Z,14.23
2018-05-24T04:55:11.225Z,17.77
2018-05-24T04:57:45.993Z,16.10
2018-05-24T05:00:21.842Z,15.40
2018-05-24T05:02:56.882Z,13.30
2018-05-24T05:05:34.373Z,16.00
2018-05-24T05:08:10.020Z,13.90
2018-05-24T05:10:46.484Z,15.33
2018-05-24T05:13:22.164Z,15.33
2018-05-24T05:15:58.403Z,15.53
2018-05-24T05:18:34.056Z,15.23
2018-05-24T05:21:09.493Z,15.13
2018-05-24T05:23:44.543Z,15.23
2018-05-24T05:26:20.387Z,14.80
2018-05-24T05:28:55.217Z,16.03
2018-05-24T05:31:30.049Z,18.57
2018-05-24T05:34:05.902Z,16.93
2018-05-24T05:36:42.122Z,17.23
2018-05-24T05:39:18.433Z,15.63
2018-05-24T05:41:53.259Z,17.47
2018-05-24T05:44:28.775Z,17.03
2018-05-24T05:47:04.661Z,18.70
2018-05-24T05:49:39.629Z,16.20
2018-05-24T05:52:15.448Z,19.33
2018-05-24T05:54:51.300Z,16.33
2018-05-24T05:57:27.733Z,16.47
2018-05-24T06:00:03.744Z,16.73
2018-05-24T06:02:38.726Z,18.60
2018-05-24T06:05:13.598Z,17.90
2018-05-24T06:07:49.041Z,17.87
2018-05-24T06:10:24.437Z,18.90
2018-05-24T06:13:00.345Z,18.67
2018-05-24T06:15:36.339Z,17.07
2018-05-24T06:18:12.053Z,17.17
2018-05-24T06:20:47.173Z,18.87
2018-05-24T06:23:22.734Z,18.87
2018-05-24T06:25:58.377Z,18.37
2018-05-24T06:28:34.955Z,18.90
2018-05-24T06:31:11.728Z,16.30
2018-05-24T06:33:47.376Z,16.40
2018-05-24T06:36:22.620Z,17.70
2018-05-24T06:38:58.520Z,19.43
2018-05-24T06:41:34.322Z,16.33
2018-05-24T06:44:10.092Z,16.67
2018-05-24T06:46:46.563Z,17.93
2018-05-24T06:49:21.783Z,17.53
2018-05-24T06:51:56.615Z,18.37
2018-05-24T06:54:32.268Z,17.87
2018-05-24T06:57:07.095Z,18.00
2018-05-24T06:59:42.947Z,20.97
2018-05-24T07:02:20.254Z,19.40
2018-05-24T07:04:55.680Z,21.03
2018-05-24T07:07:30.935Z,18.63
2018-05-24T07:10:06.785Z,20.27
2018-05-24T07:12:42.426Z,18.30
2018-05-24T07:15:17.256Z,18.37
2018-05-24T07:17:52.090Z,17.60
2018-05-24T07:20:27.740Z,17.57
2018-05-24T07:23:03.597Z,18.80
2018-05-24T07:25:39.488Z,20.43
2018-05-24T07:28:14.864Z,18.57
2018-05-24T07:30:50.543Z,19.23
2018-05-24T07:33:27.856Z,17.80
2018-05-24T07:36:03.280Z,18.67
2018-05-24T07:38:39.128Z,18.67
2018-05-24T07:41:15.400Z,20.30
2018-05-24T07:43:50.954Z,16.80
2018-05-24T07:46:27.269Z,17.77
2018-05-24T07:49:02.134Z,19.10
2018-05-24T07:51:36.980Z,19.60
2018-05-24T07:54:11.968Z,18.00
2018-05-24T07:56:48.400Z,17.70
2018-05-24T07:59:23.406Z,18.60
2018-05-24T08:01:59.103Z,16.90
2018-05-24T08:04:34.398Z,18.90
2018-05-24T08:07:09.227Z,17.50
2018-05-24T08:09:44.877Z,16.13
2018-05-24T08:12:19.909Z,15.90
2018-05-24T08:14:55.149Z,16.00
2018-05-24T08:17:30.597Z,15.40
2018-05-24T08:20:06.458Z,16.30
2018-05-24T08:22:42.917Z,17.63
2018-05-24T08:25:18.102Z,14.40
2018-05-24T08:27:53.878Z,13.90
2018-05-24T08:30:30.182Z,16.00
2018-05-24T08:33:05.209Z,14.33
2018-05-24T08:35:40.138Z,13.83
2018-05-24T08:40:57.403Z,12.83
2018-05-24T08:43:33.006Z,12.40
2018-05-24T08:46:08.590Z,12.27
2018-05-24T08:48:44.169Z,12.23
2018-05-24T08:51:19.670Z,12.17
2018-05-24T08:53:55.320Z,11.63
2018-05-24T08:56:31.790Z,11.73
2018-05-24T08:59:07.030Z,11.20
2018-05-24T09:01:43.703Z,12.10
2018-05-24T09:04:19.604Z,10.80
2018-05-24T09:06:55.724Z,11.20
2018-05-24T09:09:31.991Z,10.50
2018-05-24T09:12:07.020Z,9.30
2018-05-24T09:14:45.135Z,11.40
2018-05-24T09:17:20.363Z,9.93
2018-05-24T09:19:55.193Z,9.67
2018-05-24T09:22:30.842Z,8.20
2018-05-24T09:25:05.684Z,9.03
2018-05-24T09:27:44.604Z,8.27
2018-05-24T09:30:19.941Z,8.40
2018-05-24T09:32:56.457Z,7.93
2018-05-24T09:35:32.163Z,10.10
2018-05-24T09:38:08.225Z,8.23
2018-05-24T09:40:43.056Z,9.20
2018-05-24T09:43:18.661Z,9.47
2018-05-24T09:45:57.283Z,8.43
2018-05-24T09:48:32.048Z,8.63
2018-05-24T09:51:07.083Z,8.03
2018-05-24T09:53:42.734Z,8.70
2018-05-24T09:56:18.898Z,8.90
2018-05-24T09:58:54.442Z,9.53
2018-05-24T10:01:30.546Z,9.10
2018-05-24T10:04:05.641Z,8.83
2018-05-24T10:06:40.471Z,8.73
2018-05-24T10:09:15.960Z,7.17
2018-05-24T10:11:52.384Z,9.33
2018-05-24T10:14:27.622Z,7.60
2018-05-24T10:17:03.066Z,8.57
2018-05-24T10:19:38.307Z,7.60
2018-05-24T10:22:13.347Z,7.07
2018-05-24T10:24:49.811Z,7.00
2018-05-24T10:27:25.670Z,7.90
2018-05-24T10:30:01.315Z,6.70
2018-05-24T10:32:36.968Z,6.80
2018-05-24T10:35:11.705Z,7.60
2018-05-24T10:37:47.549Z,6.77
2018-05-24T10:40:23.096Z,6.80
2018-05-24T10:42:59.570Z,5.93
2018-05-24T10:45:34.602Z,6.27
2018-05-24T10:48:10.145Z,5.37
2018-05-24T10:50:46.414Z,4.83
2018-05-24T10:53:22.060Z,5.50
2018-05-24T10:55:57.306Z,4.97
2018-05-24T10:58:33.977Z,3.67
2018-05-24T11:01:10.037Z,4.03
2018-05-24T11:03:46.512Z,3.00
2018-05-24T11:06:22.176Z,3.10
2018-05-24T11:08:57.800Z,3.93
2018-05-24T11:11:33.292Z,3.10
2018-05-24T11:14:09.103Z,4.30
2018-05-24T11:16:44.747Z,4.07
2018-05-24T11:19:19.577Z,4.50
2018-05-24T11:21:55.152Z,3.60
2018-05-24T11:24:30.196Z,3.67
2018-05-24T11:27:05.917Z,4.50
2018-05-24T11:29:41.562Z,4.20
2018-05-24T11:32:17.123Z,3.70
2018-05-24T11:34:52.203Z,2.90
2018-05-24T11:37:27.898Z,3.30
2018-05-24T11:40:02.664Z,3.90
2018-05-24T11:42:37.556Z,3.33
2018-05-24T11:45:13.209Z,3.57
2018-05-24T11:47:48.855Z,3.30
2018-05-24T11:50:23.892Z,2.90
2018-05-24T11:52:59.540Z,3.37
2018-05-24T11:55:36.214Z,3.00
2018-05-24T11:58:11.044Z,3.80
2018-05-24T12:00:45.894Z,3.57
2018-05-24T12:03:22.466Z,3.00
2018-05-24T12:05:57.385Z,3.20
2018-05-24T12:08:32.220Z,3.57
2018-05-24T12:11:08.679Z,2.70
2018-05-24T12:13:44.531Z,3.27
2018-05-24T12:16:19.364Z,3.50
2018-05-24T12:18:55.020Z,4.70
2018-05-24T12:21:29.830Z,4.00
2018-05-24T12:24:05.291Z,3.83
2018-05-24T12:26:40.116Z,3.73
2018-05-24T12:29:15.400Z,4.33
2018-05-24T12:31:50.658Z,4.77
2018-05-24T12:34:26.450Z,4.03
2018-05-24T12:37:01.487Z,3.27
2018-05-24T12:39:37.956Z,2.53
2018-05-24T12:42:12.994Z,3.33
2018-05-24T12:44:48.440Z,3.40
2018-05-24T12:47:23.222Z,3.53
2018-05-24T12:49:58.915Z,3.80
2018-05-24T12:52:34.568Z,4.40
2018-05-24T12:55:10.829Z,3.60
2018-05-24T12:57:46.137Z,3.17
2018-05-24T13:00:21.621Z,3.30
2018-05-24T13:02:57.264Z,3.57
2018-05-24T13:05:33.529Z,2.90
2018-05-24T13:08:09.485Z,3.47
2018-05-24T13:10:44.315Z,4.40
2018-05-24T13:13:22.015Z,3.60
2018-05-24T13:15:57.972Z,4.30
2018-05-24T13:18:35.672Z,4.23
2018-05-24T13:21:12.306Z,4.63
2018-05-24T13:23:49.071Z,4.17
2018-05-24T13:26:23.744Z,5.40
2018-05-24T13:28:58.578Z,4.50
2018-05-24T13:31:34.152Z,5.03
2018-05-24T13:34:10.795Z,4.23
2018-05-24T13:36:46.649Z,6.03
2018-05-24T13:39:21.692Z,3.70
2018-05-24T13:41:57.337Z,3.53
2018-05-24T13:44:32.902Z,4.40
2018-05-24T13:47:08.749Z,4.70
2018-05-24T13:49:45.203Z,4.97
2018-05-24T13:52:20.456Z,4.73
2018-05-24T13:54:55.276Z,5.47
2018-05-24T13:57:41.984Z,4.63
2018-05-24T14:00:16.916Z,2.77
2018-05-24T14:02:53.694Z,4.30
2018-05-24T14:05:29.239Z,3.83
2018-05-24T14:08:04.787Z,2.23
2018-05-24T14:10:39.619Z,3.87
2018-05-24T14:13:15.061Z,3.20
2018-05-24T14:15:50.200Z,2.83
2018-05-24T14:18:25.132Z,2.70
2018-05-24T14:21:00.988Z,3.20
2018-05-24T14:23:36.020Z,2.63
2018-05-24T14:26:11.724Z,3.23
2018-05-24T14:28:47.118Z,2.10
2018-05-24T14:31:22.153Z,2.00
2018-05-24T14:33:57.800Z,2.97
2018-05-24T14:36:32.639Z,2.83
2018-05-24T14:39:07.258Z,2.00
2018-05-24T14:41:42.089Z,2.13
2018-05-24T14:44:17.021Z,2.77
2018-05-24T14:46:52.029Z,2.93
2018-05-24T14:49:27.605Z,2.53
2018-05-24T14:52:02.543Z,2.57
2018-05-24T14:54:38.797Z,2.50
2018-05-24T14:57:14.247Z,2.40
2018-05-24T14:59:49.046Z,1.80
2018-05-24T15:02:23.965Z,3.17
2018-05-24T15:04:58.635Z,1.90
2018-05-24T15:07:35.109Z,2.60
2018-05-24T15:10:12.889Z,2.20
2018-05-24T15:12:51.133Z,2.00
2018-05-24T15:15:26.741Z,2.00
2018-05-24T15:18:02.637Z,2.37
2018-05-24T15:20:38.515Z,2.40
2018-05-24T15:23:16.185Z,2.03
2018-05-24T15:25:53.275Z,2.47
2018-05-24T15:28:31.580Z,2.93
2018-05-24T15:31:06.595Z,2.27
2018-05-24T15:33:42.113Z,1.70
2018-05-24T15:36:17.286Z,2.43
2018-05-24T15:38:52.432Z,2.70
2018-05-24T15:41:30.197Z,1.80
2018-05-24T15:44:05.931Z,3.43
2018-05-24T15:46:43.565Z,2.43
2018-05-24T15:49:19.214Z,2.87
2018-05-24T15:51:54.937Z,2.27
2018-05-24T15:54:31.271Z,2.43
2018-05-24T15:57:18.724Z,4.73
2018-05-24T15:59:54.672Z,2.77
2018-05-24T16:02:30.506Z,2.80
2018-05-24T16:05:06.016Z,2.40
2018-05-24T16:07:41.695Z,2.43
2018-05-24T16:10:18.302Z,2.60
2018-05-24T16:12:54.193Z,3.00
2018-05-24T16:15:30.258Z,3.33
2018-05-24T16:18:05.900Z,2.57
2018-05-24T16:20:40.565Z,2.97
2018-05-24T16:23:15.361Z,2.80
2018-05-24T16:25:50.190Z,8.50
2018-05-24T16:28:25.025Z,3.87
2018-05-24T16:31:00.670Z,4.57
2018-05-24T16:33:35.448Z,3.87
2018-05-24T16:36:10.743Z,3.73
2018-05-24T16:38:45.775Z,3.10
2018-05-24T16:41:21.834Z,3.80
2018-05-24T16:43:56.844Z,4.50
2018-05-24T16:46:32.525Z,4.63
2018-05-24T16:49:08.139Z,2.80
2018-05-24T16:51:43.205Z,2.87
2018-05-24T16:54:18.770Z,3.37
2018-05-24T16:56:55.201Z,2.80
2018-05-24T16:59:31.599Z,2.70
2018-05-24T17:02:07.131Z,3.43
2018-05-24T17:04:42.586Z,3.10
2018-05-24T17:07:17.546Z,2.90
2018-05-24T17:09:52.443Z,4.43
2018-05-24T17:12:28.125Z,2.30
2018-05-24T17:15:03.537Z,2.90
2018-05-24T17:17:39.596Z,3.20
2018-05-24T17:20:15.257Z,2.70
2018-05-24T17:22:51.104Z,2.83
2018-05-24T17:25:26.933Z,4.40
2018-05-24T17:28:02.607Z,2.40
2018-05-24T17:30:37.651Z,3.30
2018-05-24T17:33:12.469Z,2.40
2018-05-24T17:35:48.125Z,2.63
2018-05-24T17:38:22.956Z,2.87
2018-05-24T17:40:57.782Z,2.33
2018-05-24T17:43:33.488Z,3.03
2018-05-24T17:46:09.079Z,2.27
2018-05-24T17:48:43.919Z,2.10
2018-05-24T17:51:19.566Z,2.37
2018-05-24T17:53:54.391Z,3.33
2018-05-24T17:56:29.328Z,2.43
2018-05-24T17:59:04.164Z,4.47
2018-05-24T18:01:39.203Z,2.50
2018-05-24T18:04:14.842Z,2.37
2018-05-24T18:06:49.889Z,3.30
2018-05-24T18:09:26.552Z,2.60
2018-05-24T18:12:02.208Z,2.40
2018-05-24T18:14:37.031Z,3.17
2018-05-24T18:17:12.066Z,2.67
2018-05-24T18:19:47.694Z,2.50
2018-05-24T18:22:25.019Z,2.80
2018-05-24T18:24:59.943Z,2.83
2018-05-24T18:27:34.876Z,3.07
2018-05-24T18:30:09.695Z,5.83
2018-05-24T18:32:45.965Z,8.73
2018-05-24T18:35:21.200Z,3.50
2018-05-24T18:38:00.644Z,3.03
2018-05-24T18:40:36.516Z,2.80
2018-05-24T18:43:11.574Z,3.10
2018-05-24T18:45:47.482Z,3.37
2018-05-24T18:48:22.934Z,3.63
2018-05-24T18:50:58.584Z,5.43
2018-05-24T18:53:34.131Z,4.93
2018-05-24T18:56:08.963Z,4.47
2018-05-24T18:58:45.027Z,3.70
2018-05-24T19:01:21.307Z,4.17
2018-05-24T19:03:57.342Z,4.10
2018-05-24T19:06:33.749Z,3.80
2018-05-24T19:09:10.074Z,4.40
2018-05-24T19:11:45.312Z,4.20
2018-05-24T19:14:21.780Z,4.80
2018-05-24T19:16:56.823Z,4.20
2018-05-24T19:19:33.235Z,5.13
2018-05-24T19:22:08.736Z,4.83
2018-05-24T19:24:44.374Z,4.30
2018-05-24T19:27:19.474Z,4.60
2018-05-24T19:29:55.070Z,4.53
2018-05-24T19:32:29.890Z,4.33
2018-05-24T19:35:05.555Z,4.80
2018-05-24T19:37:41.199Z,4.40
2018-05-24T19:40:16.428Z,3.70
2018-05-24T19:42:52.290Z,4.67
2018-05-24T19:45:28.689Z,4.00
2018-05-24T19:48:05.427Z,4.70
2018-05-24T19:50:40.399Z,4.90
2018-05-24T19:53:15.506Z,5.43
2018-05-24T19:55:50.315Z,5.97
2018-05-24T19:58:25.984Z,4.47
2018-05-24T20:01:01.024Z,4.30
2018-05-24T20:03:37.079Z,5.30
2018-05-24T20:06:12.312Z,4.00
2018-05-24T20:08:47.963Z,4.33
2018-05-24T20:11:22.483Z,5.23
2018-05-24T20:13:59.157Z,4.40
2018-05-24T20:16:34.090Z,3.50
2018-05-24T20:19:09.739Z,4.47
2018-05-24T20:21:44.980Z,7.37
2018-05-24T20:24:19.819Z,5.77
2018-05-24T20:26:54.647Z,5.73
2018-05-24T20:29:30.294Z,7.67
2018-05-24T20:32:05.125Z,7.37
2018-05-24T20:34:39.965Z,6.43
2018-05-24T20:37:15.403Z,4.83
2018-05-24T20:39:51.049Z,5.57
2018-05-24T20:42:25.985Z,4.80
2018-05-24T20:45:02.504Z,5.30
2018-05-24T20:47:38.916Z,4.40
2018-05-24T20:50:15.694Z,4.60
2018-05-24T20:52:50.931Z,4.93
2018-05-24T20:55:25.975Z,6.53
2018-05-24T20:58:00.489Z,4.30
2018-05-24T21:00:36.452Z,5.43
2018-05-24T21:03:11.637Z,6.10
2018-05-24T21:05:46.310Z,6.67
2018-05-24T21:08:22.645Z,5.80
2018-05-24T21:10:59.192Z,4.70
2018-05-24T21:13:34.080Z,4.73
2018-05-24T21:16:08.914Z,4.57
2018-05-24T21:18:43.738Z,5.70
2018-05-24T21:21:22.715Z,4.63
2018-05-24T21:23:57.290Z,5.83
2018-05-24T21:26:32.329Z,5.67
2018-05-24T21:29:07.158Z,4.60
2018-05-24T21:31:41.995Z,4.73
2018-05-24T21:34:16.619Z,4.80
2018-05-24T21:36:52.924Z,4.77
2018-05-24T21:39:29.454Z,5.57
2018-05-24T21:42:05.816Z,5.00
2018-05-24T21:44:40.643Z,4.53
2018-05-24T21:47:16.503Z,4.90
2018-05-24T21:49:51.308Z,4.00
2018-05-24T21:52:26.571Z,5.87
2018-05-24T21:55:04.070Z,6.13
2018-05-24T21:57:39.110Z,5.73
2018-05-24T22:00:14.172Z,5.10
2018-05-24T22:02:49.584Z,5.53
2018-05-24T22:05:25.094Z,4.90
2018-05-24T22:08:00.672Z,7.90
2018-05-24T22:10:36.530Z,5.80
2018-05-24T22:13:11.254Z,5.63
2018-05-24T22:15:46.089Z,5.00
2018-05-24T22:18:21.334Z,5.60
2018-05-24T22:20:56.801Z,5.33
2018-05-24T22:23:33.140Z,5.73
2018-05-24T22:26:08.483Z,5.07
2018-05-24T22:28:44.891Z,5.33
2018-05-24T22:31:20.085Z,4.43
2018-05-24T22:33:56.045Z,4.53
2018-05-24T22:36:31.082Z,4.77
2018-05-24T22:39:06.116Z,5.30
2018-05-24T22:41:41.762Z,7.30
2018-05-24T22:44:17.206Z,4.63
2018-05-24T22:46:53.064Z,6.07
2018-05-24T22:49:28.098Z,5.80
2018-05-24T22:52:03.032Z,6.10
2018-05-24T22:54:38.069Z,4.63
2018-05-24T22:57:13.712Z,5.73
2018-05-24T22:59:48.549Z,5.43
2018-05-24T23:02:23.795Z,5.47
2018-05-24T23:05:00.685Z,5.90
2018-05-24T23:07:35.562Z,5.70
2018-05-24T23:10:11.142Z,5.57
2018-05-24T23:12:46.897Z,4.87
2018-05-24T23:15:22.747Z,4.50
2018-05-24T23:17:58.397Z,4.43
2018-05-24T23:20:33.432Z,5.00
2018-05-24T23:23:09.901Z,5.03
2018-05-24T23:25:44.971Z,4.80
2018-05-24T23:28:22.230Z,4.73
2018-05-24T23:30:57.670Z,4.50
2018-05-24T23:33:32.705Z,5.07
2018-05-24T23:36:08.765Z,4.03
2018-05-24T23:38:43.689Z,4.87
2018-05-24T23:41:18.937Z,4.80
2018-05-24T23:43:54.489Z,6.07
2018-05-24T23:46:29.918Z,5.10
2018-05-24T23:49:06.406Z,4.73
2018-05-24T23:51:41.638Z,5.80
2018-05-24T23:54:17.503Z,5.53
2018-05-24T23:56:53.151Z,5.07
2018-05-24T23:59:29.396Z,4.93
